Time;durP1;ratioP1;P1;durP2;ratioP2;P2;SDS_P1;SDS_P2;PMS_P1;PMS_P2;Temp;Humidity;BMP_temperature;BMP_pressure;BME280_temperature;BME280_humidity;BME280_pressure;Samples;Min_cycle;Max_cycle;Signal;HPM_P1;HPM_P2
2023/08/27 00:00:43;;;;;;;9.68;8.77;;;14.30;99.90;;;;;;4983274;28;89090;-34
2023/08/27 00:03:08;;;;;;;10.73;8.50;;;14.30;99.90;;;;;;4993419;28;89689;-38
2023/08/27 00:05:40;;;;;;;10.93;9.35;;;14.30;99.90;;;;;;4996286;28;88453;-32
2023/08/27 00:08:05;;;;;;;10.38;9.20;;;14.30;99.90;;;;;;4981905;28;88391;-35
2023/08/27 00:10:31;;;;;;;10.85;9.23;;;14.30;99.90;;;;;;4995155;28;90168;-36
2023/08/27 00:12:56;;;;;;;8.75;7.80;;;14.30;99.90;;;;;;4991240;28;89860;-35
2023/08/27 00:15:22;;;;;;;9.10;8.15;;;14.30;99.90;;;;;;4989230;28;89673;-32
2023/08/27 00:17:48;;;;;;;8.52;7.68;;;14.30;99.90;;;;;;4992936;28;88205;-32
2023/08/27 00:20:14;;;;;;;9.60;8.70;;;14.30;99.90;;;;;;4982081;28;89989;-34
2023/08/27 00:22:39;;;;;;;10.50;8.48;;;14.30;99.90;;;;;;4982803;28;89279;-33
2023/08/27 00:25:06;;;;;;;8.70;7.75;;;14.30;99.90;;;;;;4985091;28;88390;-32
2023/08/27 00:27:33;;;;;;;7.88;7.28;;;14.30;99.90;;;;;;5001719;28;88860;-32
2023/08/27 00:30:00;;;;;;;9.45;8.52;;;14.20;99.90;;;;;;4987893;28;90347;-35
2023/08/27 00:32:28;;;;;;;11.57;8.75;;;14.20;99.90;;;;;;5001257;28;89902;-34
2023/08/27 00:34:53;;;;;;;9.35;7.88;;;14.20;99.90;;;;;;4997310;28;89499;-38
2023/08/27 00:37:19;;;;;;;9.07;8.10;;;14.20;99.90;;;;;;4982500;28;88779;-37
2023/08/27 00:39:45;;;;;;;8.23;7.53;;;14.20;99.90;;;;;;4982072;28;90041;-33
2023/08/27 00:42:11;;;;;;;8.73;7.85;;;14.10;99.90;;;;;;4982098;28;89788;-36
2023/08/27 00:44:37;;;;;;;9.98;9.07;;;14.10;99.90;;;;;;4981938;28;89058;-34
2023/08/27 00:47:04;;;;;;;10.05;8.93;;;14.10;99.90;;;;;;4982952;28;87566;-35
2023/08/27 00:49:30;;;;;;;9.88;8.93;;;14.10;99.90;;;;;;4985831;28;89272;-35
2023/08/27 00:51:57;;;;;;;9.85;8.95;;;14.00;99.90;;;;;;5002240;28;89506;-33
2023/08/27 00:54:24;;;;;;;10.50;9.45;;;14.00;99.90;;;;;;4997594;28;89518;-37
2023/08/27 00:56:50;;;;;;;9.88;8.82;;;14.00;99.90;;;;;;4982318;28;88344;-34
2023/08/27 00:59:16;;;;;;;8.32;7.50;;;14.00;99.90;;;;;;4981618;28;90217;-33
2023/08/27 01:01:42;;;;;;;9.57;8.77;;;13.90;99.90;;;;;;4991075;28;89137;-34
2023/08/27 01:04:09;;;;;;;10.73;8.57;;;13.90;99.90;;;;;;4984651;28;89336;-34
2023/08/27 01:06:35;;;;;;;9.75;7.90;;;13.90;99.90;;;;;;4981572;28;89103;-36
2023/08/27 01:09:21;;;;;;;8.82;7.82;;;13.90;99.90;;;;;;4982187;28;90004;-33
2023/08/27 01:12:09;;;;;;;11.05;8.50;;;13.90;99.90;;;;;;4983076;28;89716;-32
2023/08/27 01:14:36;;;;;;;9.00;8.13;;;13.90;99.90;;;;;;4971516;28;87636;-33
2023/08/27 01:17:06;;;;;;;9.02;8.15;;;13.90;99.90;;;;;;4981896;28;91083;-32
2023/08/27 01:19:34;;;;;;;11.05;9.98;;;13.90;99.90;;;;;;4981660;28;91370;-32
2023/08/27 01:21:59;;;;;;;9.20;8.40;;;13.80;99.90;;;;;;4981687;28;89740;-39
2023/08/27 01:24:25;;;;;;;9.25;8.40;;;13.80;99.90;;;;;;4983360;28;87575;-32
2023/08/27 01:27:05;;;;;;;10.73;9.80;;;13.80;99.90;;;;;;4980799;28;90301;-35
2023/08/27 01:29:42;;;;;;;9.75;8.88;;;13.70;99.90;;;;;;4981227;28;89929;-35
2023/08/27 01:32:32;;;;;;;11.10;9.50;;;13.60;99.90;;;;;;4969181;28;89637;-41
2023/08/27 01:35:01;;;;;;;11.32;10.25;;;13.60;99.90;;;;;;4981818;28;89071;-37
2023/08/27 01:37:26;;;;;;;11.48;10.30;;;13.60;99.90;;;;;;4980591;28;89515;-35
2023/08/27 01:39:58;;;;;;;10.50;9.48;;;13.70;99.90;;;;;;4981130;28;89842;-33
2023/08/27 01:42:24;;;;;;;11.73;10.63;;;13.70;99.90;;;;;;4981981;28;89699;-36
2023/08/27 01:44:49;;;;;;;12.13;10.98;;;13.70;99.90;;;;;;4980507;28;89371;-33
2023/08/27 01:47:15;;;;;;;12.98;11.63;;;13.70;99.90;;;;;;4981590;28;88366;-34
2023/08/27 01:49:40;;;;;;;10.85;9.73;;;13.70;99.90;;;;;;4981551;28;90382;-35
2023/08/27 01:52:06;;;;;;;12.02;10.93;;;13.70;99.90;;;;;;4980739;28;89784;-33
2023/08/27 01:54:35;;;;;;;13.50;11.18;;;13.70;99.90;;;;;;4979989;28;89376;-36
2023/08/27 01:57:00;;;;;;;13.00;11.80;;;13.60;99.90;;;;;;4980708;28;89657;-35
2023/08/27 01:59:26;;;;;;;11.32;10.23;;;13.70;99.90;;;;;;4980318;28;91319;-35
2023/08/27 02:01:51;;;;;;;12.63;11.38;;;13.60;99.90;;;;;;4990957;28;89751;-34
2023/08/27 02:04:17;;;;;;;11.73;10.52;;;13.60;99.90;;;;;;4982819;28;88316;-34
2023/08/27 02:06:43;;;;;;;12.48;11.32;;;13.60;99.90;;;;;;4991947;28;89618;-34
2023/08/27 02:09:08;;;;;;;11.57;10.48;;;13.60;99.90;;;;;;4986140;28;90712;-32
2023/08/27 02:11:34;;;;;;;12.63;11.50;;;13.70;99.90;;;;;;4988450;28;89857;-32
2023/08/27 02:13:59;;;;;;;11.45;10.32;;;13.70;99.90;;;;;;4979373;28;88278;-34
2023/08/27 02:16:25;;;;;;;11.82;10.65;;;13.70;99.90;;;;;;4991498;28;87828;-39
2023/08/27 02:18:51;;;;;;;13.27;11.40;;;13.60;99.90;;;;;;4995072;28;90369;-36
2023/08/27 02:21:16;;;;;;;10.05;9.15;;;13.60;99.90;;;;;;4979624;28;89572;-34
2023/08/27 02:23:42;;;;;;;12.63;11.40;;;13.60;99.90;;;;;;4980891;28;89195;-34
2023/08/27 02:26:08;;;;;;;12.27;11.07;;;13.70;99.90;;;;;;4990911;28;90084;-33
2023/08/27 02:28:33;;;;;;;12.38;11.00;;;13.70;99.90;;;;;;4981203;28;91055;-31
2023/08/27 02:30:59;;;;;;;11.35;10.25;;;13.70;99.90;;;;;;4991229;28;89662;-35
2023/08/27 02:33:25;;;;;;;11.15;10.05;;;13.70;99.90;;;;;;4997585;28;89363;-32
2023/08/27 02:35:51;;;;;;;11.40;10.50;;;13.70;99.90;;;;;;4999503;28;89425;-35
2023/08/27 02:38:17;;;;;;;11.93;10.77;;;13.70;99.90;;;;;;4980448;28;90137;-33
2023/08/27 02:40:43;;;;;;;13.38;11.60;;;13.70;99.90;;;;;;4979298;28;89823;-34
2023/08/27 02:43:09;;;;;;;12.07;10.15;;;13.70;99.90;;;;;;4979462;28;89171;-36
2023/08/27 02:45:35;;;;;;;15.43;10.15;;;13.60;99.90;;;;;;4979105;28;88529;-36
2023/08/27 02:48:01;;;;;;;12.25;11.07;;;13.60;99.90;;;;;;4979091;28;90192;-35
2023/08/27 02:50:26;;;;;;;13.45;11.25;;;13.50;99.90;;;;;;4986841;28;89508;-33
2023/08/27 02:52:52;;;;;;;14.88;12.38;;;13.50;99.90;;;;;;4979576;28;88199;-32
2023/08/27 02:55:18;;;;;;;16.25;10.65;;;13.50;99.90;;;;;;4979225;28;90159;-34
2023/08/27 02:57:43;;;;;;;11.73;10.57;;;13.50;99.90;;;;;;4979324;28;90129;-33
2023/08/27 03:00:10;;;;;;;16.27;10.85;;;13.40;99.90;;;;;;4978119;28;89667;-38
2023/08/27 03:02:36;;;;;;;13.88;12.32;;;13.40;99.90;;;;;;4989485;28;89142;-33
2023/08/27 03:05:04;;;;;;;13.60;12.27;;;13.40;99.90;;;;;;4987058;28;89812;-33
2023/08/27 03:07:30;;;;;;;12.77;11.68;;;13.40;99.90;;;;;;4988355;28;89743;-32
2023/08/27 03:09:56;;;;;;;12.05;11.05;;;13.30;99.90;;;;;;4988218;28;89653;-32
2023/08/27 03:12:22;;;;;;;11.73;10.68;;;13.30;99.90;;;;;;4987592;28;89096;-37
2023/08/27 03:14:47;;;;;;;13.27;12.15;;;13.30;99.90;;;;;;4987376;28;87559;-33
2023/08/27 03:17:13;;;;;;;13.43;12.02;;;13.30;99.90;;;;;;4987775;28;90869;-33
2023/08/27 03:19:39;;;;;;;12.43;11.32;;;13.30;99.90;;;;;;4985714;28;89337;-38
2023/08/27 03:22:05;;;;;;;12.10;11.00;;;13.30;99.90;;;;;;4988219;28;90177;-33
2023/08/27 03:24:30;;;;;;;12.02;10.90;;;13.30;99.90;;;;;;4987020;28;89008;-33
2023/08/27 03:26:56;;;;;;;11.88;10.77;;;13.30;99.90;;;;;;4986756;28;90307;-35
2023/08/27 03:29:22;;;;;;;14.10;12.63;;;13.30;99.90;;;;;;4986748;28;89417;-37
2023/08/27 03:31:47;;;;;;;12.10;10.55;;;13.30;99.90;;;;;;4982125;28;89330;-37
2023/08/27 03:34:13;;;;;;;12.00;10.90;;;13.30;99.90;;;;;;4985311;28;89395;-33
2023/08/27 03:36:40;;;;;;;13.40;12.00;;;13.30;99.90;;;;;;4979067;28;90906;-33
2023/08/27 03:39:05;;;;;;;12.68;11.57;;;13.30;99.90;;;;;;4980495;28;89338;-34
2023/08/27 03:41:31;;;;;;;11.90;10.77;;;13.30;99.90;;;;;;4978674;28;87496;-33
2023/08/27 03:43:57;;;;;;;11.77;10.57;;;13.40;99.90;;;;;;4979794;28;88440;-35
2023/08/27 03:46:23;;;;;;;12.57;11.23;;;13.40;99.90;;;;;;4979120;28;89996;-36
2023/08/27 03:48:48;;;;;;;11.93;10.80;;;13.40;99.90;;;;;;4979245;28;89948;-33
2023/08/27 03:51:14;;;;;;;11.30;10.15;;;13.40;99.90;;;;;;4983439;28;88853;-37
2023/08/27 03:53:40;;;;;;;10.75;9.82;;;13.40;99.90;;;;;;4990127;28;89830;-33
2023/08/27 03:56:06;;;;;;;12.23;11.05;;;13.50;99.90;;;;;;4989851;28;89948;-39
2023/08/27 03:58:32;;;;;;;12.05;10.90;;;13.50;99.90;;;;;;4989468;28;88666;-34
2023/08/27 04:00:58;;;;;;;12.82;10.98;;;13.50;99.90;;;;;;4989943;28;89760;-33
2023/08/27 04:03:23;;;;;;;9.85;8.95;;;13.50;99.90;;;;;;4996172;28;88580;-39
2023/08/27 04:05:49;;;;;;;11.88;10.65;;;13.50;99.90;;;;;;4990559;28;90067;-36
2023/08/27 04:08:18;;;;;;;10.07;9.18;;;13.50;99.90;;;;;;4989881;28;90413;-35
2023/08/27 04:11:03;;;;;;;10.50;9.52;;;13.50;99.90;;;;;;4989604;28;88807;-36
2023/08/27 04:13:30;;;;;;;11.57;10.52;;;13.50;99.90;;;;;;4984091;28;89457;-36
2023/08/27 04:16:05;;;;;;;11.95;10.75;;;13.40;99.90;;;;;;4990382;28;89748;-32
2023/08/27 04:18:33;;;;;;;11.20;10.07;;;13.40;99.90;;;;;;4996437;28;89346;-36
2023/08/27 04:20:58;;;;;;;10.90;9.90;;;13.40;99.90;;;;;;4992071;28;89157;-34
2023/08/27 04:23:24;;;;;;;11.73;10.63;;;13.40;99.90;;;;;;4992284;28;88379;-33
2023/08/27 04:25:50;;;;;;;10.50;9.25;;;13.40;99.90;;;;;;4995943;28;90265;-35
2023/08/27 04:28:16;;;;;;;10.77;9.77;;;13.40;99.90;;;;;;4997136;28;89682;-32
2023/08/27 04:30:42;;;;;;;12.57;11.38;;;13.40;99.90;;;;;;4997642;28;89634;-39
2023/08/27 04:33:09;;;;;;;11.68;10.32;;;13.30;99.90;;;;;;4997327;28;87629;-32
2023/08/27 04:35:35;;;;;;;11.75;10.63;;;13.40;99.90;;;;;;4995905;28;89807;-34
2023/08/27 04:38:03;;;;;;;11.18;10.07;;;13.40;99.90;;;;;;5000533;28;89626;-32
2023/08/27 04:40:29;;;;;;;11.80;10.63;;;13.40;99.90;;;;;;4984860;28;89853;-37
2023/08/27 04:42:55;;;;;;;11.60;10.57;;;13.40;99.90;;;;;;4996227;28;88178;-37
2023/08/27 04:45:20;;;;;;;11.45;10.45;;;13.30;99.90;;;;;;4995007;28;90625;-39
2023/08/27 04:47:46;;;;;;;10.85;9.88;;;13.40;99.90;;;;;;4993164;28;89593;-35
2023/08/27 04:50:12;;;;;;;10.10;9.18;;;13.40;99.90;;;;;;4989317;28;88596;-38
2023/08/27 04:52:37;;;;;;;9.52;8.25;;;13.40;99.90;;;;;;4991953;28;88327;-34
2023/08/27 04:55:06;;;;;;;9.70;8.85;;;13.40;99.90;;;;;;4990447;28;90322;-34
2023/08/27 04:57:36;;;;;;;11.13;10.00;;;13.50;99.90;;;;;;4995531;28;89853;-34
2023/08/27 05:00:07;;;;;;;10.50;9.55;;;13.50;99.90;;;;;;4991827;28;88816;-34
2023/08/27 05:02:33;;;;;;;9.23;8.32;;;13.50;99.90;;;;;;4990877;28;88046;-33
2023/08/27 05:04:59;;;;;;;10.15;9.25;;;13.60;99.90;;;;;;4995364;28;90302;-37
2023/08/27 05:07:25;;;;;;;10.68;9.73;;;13.60;99.90;;;;;;4981578;28;89871;-32
2023/08/27 05:09:50;;;;;;;10.35;9.45;;;13.60;99.90;;;;;;4981162;28;87875;-34
2023/08/27 05:12:16;;;;;;;9.95;8.65;;;13.70;99.90;;;;;;4981504;28;88524;-31
2023/08/27 05:14:41;;;;;;;8.95;8.15;;;13.70;99.90;;;;;;4981115;28;90109;-33
2023/08/27 05:17:07;;;;;;;10.43;9.52;;;13.70;99.90;;;;;;4981252;28;90045;-37
2023/08/27 05:19:33;;;;;;;11.27;10.18;;;13.70;99.90;;;;;;4985507;28;89635;-34
2023/08/27 05:22:00;;;;;;;9.93;9.13;;;13.80;99.90;;;;;;4989051;28;89747;-35
2023/08/27 05:24:26;;;;;;;9.75;8.88;;;13.80;99.90;;;;;;4981307;28;90695;-33
2023/08/27 05:26:52;;;;;;;11.18;9.63;;;13.80;99.90;;;;;;4992614;28;89622;-32
2023/08/27 05:29:17;;;;;;;12.00;9.63;;;13.90;99.90;;;;;;4982458;28;90197;-39
2023/08/27 05:31:43;;;;;;;12.48;9.18;;;13.90;99.90;;;;;;4993680;28;87749;-37
2023/08/27 05:34:09;;;;;;;10.18;9.18;;;13.90;99.90;;;;;;4986786;28;90035;-33
2023/08/27 05:36:35;;;;;;;9.13;8.23;;;13.90;99.90;;;;;;4988179;28;89583;-38
2023/08/27 05:39:00;;;;;;;10.18;9.23;;;14.00;99.90;;;;;;4985004;28;89789;-34
2023/08/27 05:41:26;;;;;;;11.55;9.60;;;14.10;99.90;;;;;;4989257;28;88766;-34
2023/08/27 05:43:52;;;;;;;12.85;10.85;;;14.10;99.90;;;;;;4985586;28;90722;-35
2023/08/27 05:46:18;;;;;;;11.27;10.18;;;14.20;99.90;;;;;;4986950;28;89244;-35
2023/08/27 05:48:43;;;;;;;13.50;9.93;;;14.20;99.90;;;;;;4992605;28;87552;-32
2023/08/27 05:51:09;;;;;;;11.35;10.35;;;14.30;99.90;;;;;;4988044;28;89464;-32
2023/08/27 05:53:35;;;;;;;11.63;10.52;;;14.20;99.90;;;;;;4980425;28;90182;-37
2023/08/27 05:56:00;;;;;;;12.50;11.27;;;14.30;99.90;;;;;;4979769;28;88815;-32
2023/08/27 05:58:26;;;;;;;12.43;11.23;;;14.30;99.90;;;;;;4980586;28;89567;-37
2023/08/27 06:00:55;;;;;;;13.10;11.80;;;14.30;99.90;;;;;;4982679;28;88514;-37
2023/08/27 06:03:21;;;;;;;12.20;11.05;;;14.30;99.90;;;;;;4989966;28;91527;-35
2023/08/27 06:05:47;;;;;;;12.40;11.20;;;14.40;99.90;;;;;;4979613;28;88638;-37
2023/08/27 06:08:13;;;;;;;14.80;10.40;;;14.40;99.90;;;;;;4980685;28;90158;-32
2023/08/27 06:10:38;;;;;;;13.18;11.70;;;14.40;99.90;;;;;;4983048;28;88554;-32
2023/08/27 06:13:04;;;;;;;12.15;10.98;;;14.40;99.90;;;;;;5000768;28;90485;-36
2023/08/27 06:15:31;;;;;;;10.88;9.77;;;14.30;99.90;;;;;;4981922;28;90030;-35
2023/08/27 06:18:02;;;;;;;12.63;10.45;;;14.30;99.90;;;;;;4991619;28;88080;-33
2023/08/27 06:20:28;;;;;;;11.38;10.27;;;14.30;99.90;;;;;;4994103;28;87567;-36
2023/08/27 06:22:58;;;;;;;11.32;10.23;;;14.20;99.90;;;;;;4979711;28;89302;-32
2023/08/27 06:25:24;;;;;;;11.85;10.02;;;14.20;99.90;;;;;;4978337;28;90592;-38
2023/08/27 06:27:53;;;;;;;10.88;9.35;;;14.20;99.90;;;;;;4990581;28;89246;-33
2023/08/27 06:30:19;;;;;;;9.57;8.70;;;14.20;99.90;;;;;;4988624;28;89341;-35
2023/08/27 06:32:44;;;;;;;12.23;8.55;;;14.20;99.90;;;;;;4979672;28;89997;-38
2023/08/27 06:35:10;;;;;;;10.30;9.23;;;14.20;99.90;;;;;;4980199;28;89915;-33
2023/08/27 06:37:36;;;;;;;10.45;8.32;;;14.20;99.90;;;;;;4992389;28;88776;-35
2023/08/27 06:40:01;;;;;;;10.38;8.80;;;14.20;99.90;;;;;;4987658;28;89256;-34
2023/08/27 06:42:27;;;;;;;9.88;8.63;;;14.30;99.90;;;;;;4985845;28;90252;-37
2023/08/27 06:44:53;;;;;;;8.05;7.45;;;14.30;99.90;;;;;;4992562;28;90609;-37
2023/08/27 06:47:18;;;;;;;10.50;9.45;;;14.20;99.90;;;;;;4979789;28;89340;-37
2023/08/27 06:49:44;;;;;;;9.07;8.20;;;14.20;99.90;;;;;;4970430;28;87573;-34
2023/08/27 06:52:09;;;;;;;9.80;8.48;;;14.30;99.90;;;;;;4977611;28;89176;-36
2023/08/27 06:54:35;;;;;;;9.35;7.55;;;14.20;99.90;;;;;;4978233;28;89838;-36
2023/08/27 06:57:01;;;;;;;8.60;7.60;;;14.30;99.90;;;;;;4989242;28;88329;-34
2023/08/27 06:59:26;;;;;;;7.93;7.10;;;14.20;99.90;;;;;;4985311;28;88208;-35
2023/08/27 07:01:52;;;;;;;11.32;7.68;;;14.30;99.90;;;;;;4978607;28;90108;-34
2023/08/27 07:04:18;;;;;;;13.32;6.75;;;14.20;99.90;;;;;;4989801;28;90884;-34
2023/08/27 07:06:43;;;;;;;8.07;6.60;;;14.20;99.90;;;;;;4986295;28;88678;-32
2023/08/27 07:09:09;;;;;;;8.65;6.95;;;14.20;99.90;;;;;;4985987;28;88518;-34
2023/08/27 07:11:35;;;;;;;10.82;6.43;;;14.20;99.90;;;;;;4989237;28;90121;-36
2023/08/27 07:14:00;;;;;;;7.88;6.90;;;14.10;99.90;;;;;;4991335;28;89533;-34
2023/08/27 07:16:26;;;;;;;6.95;6.35;;;14.20;99.90;;;;;;4980364;28;88145;-35
2023/08/27 07:18:52;;;;;;;9.18;6.57;;;14.20;99.90;;;;;;4990804;28;89837;-35
2023/08/27 07:21:18;;;;;;;7.95;7.20;;;14.20;99.90;;;;;;4990370;28;88793;-35
2023/08/27 07:23:44;;;;;;;7.03;5.85;;;14.20;99.90;;;;;;4990983;28;90172;-35
2023/08/27 07:26:11;;;;;;;7.60;6.88;;;14.20;99.90;;;;;;4988708;28;89338;-33
2023/08/27 07:28:37;;;;;;;7.38;5.35;;;14.20;99.90;;;;;;4991183;28;87675;-32
2023/08/27 07:31:04;;;;;;;7.28;5.80;;;14.10;99.90;;;;;;4989447;28;90330;-32
2023/08/27 07:33:30;;;;;;;7.20;6.50;;;14.20;99.90;;;;;;4990235;28;89712;-33
2023/08/27 07:35:55;;;;;;;5.45;4.95;;;14.20;99.90;;;;;;4976095;28;89505;-34
2023/08/27 07:38:22;;;;;;;6.05;5.45;;;14.20;99.90;;;;;;4982262;28;89378;-39
2023/08/27 07:40:47;;;;;;;4.95;4.40;;;14.30;99.90;;;;;;4988777;28;89945;-35
2023/08/27 07:43:13;;;;;;;5.78;5.18;;;14.40;99.90;;;;;;4989404;28;89162;-33
2023/08/27 07:45:39;;;;;;;6.97;5.82;;;14.50;99.90;;;;;;4989485;28;90006;-39
2023/08/27 07:48:05;;;;;;;5.68;5.05;;;14.70;99.90;;;;;;4988823;28;89251;-36
2023/08/27 07:50:30;;;;;;;7.65;5.47;;;14.80;99.90;;;;;;4987981;28;89872;-36
2023/08/27 07:52:56;;;;;;;7.93;4.65;;;15.00;99.90;;;;;;4991387;28;90149;-33
2023/08/27 07:55:22;;;;;;;6.32;4.65;;;15.30;99.90;;;;;;4983516;28;89171;-33
2023/08/27 07:57:47;;;;;;;4.10;3.50;;;15.60;99.90;;;;;;4985324;28;88900;-37
2023/08/27 08:00:13;;;;;;;5.45;3.88;;;15.90;99.90;;;;;;4986762;28;90626;-37
2023/08/27 08:02:40;;;;;;;3.90;3.25;;;15.90;99.90;;;;;;4992700;28;90101;-32
2023/08/27 08:05:06;;;;;;;2.63;2.42;;;15.90;99.90;;;;;;4978785;28;89092;-32
2023/08/27 08:07:35;;;;;;;4.40;2.90;;;15.90;99.90;;;;;;4988619;28;89484;-33
2023/08/27 08:10:01;;;;;;;2.35;2.15;;;16.10;99.90;;;;;;4995522;28;90034;-33
2023/08/27 08:12:26;;;;;;;2.78;2.47;;;16.10;99.90;;;;;;4987044;28;88529;-35
2023/08/27 08:14:52;;;;;;;2.50;2.35;;;16.10;99.90;;;;;;4979723;28;88833;-35
2023/08/27 08:17:18;;;;;;;2.30;1.75;;;16.20;99.90;;;;;;4979329;28;89491;-33
2023/08/27 08:19:44;;;;;;;3.13;2.70;;;16.30;99.90;;;;;;4980601;28;90133;-34
2023/08/27 08:22:10;;;;;;;2.60;2.35;;;16.30;99.90;;;;;;4977860;28;89907;-34
2023/08/27 08:24:36;;;;;;;2.30;2.10;;;16.40;99.90;;;;;;4979671;28;88846;-37
2023/08/27 08:27:04;;;;;;;4.15;2.30;;;16.60;99.90;;;;;;5041168;22;87692;-35
2023/08/27 08:29:33;;;;;;;2.13;1.92;;;16.80;99.90;;;;;;5019730;27;91118;-35
2023/08/27 08:31:59;;;;;;;2.55;2.35;;;17.10;99.90;;;;;;5006528;28;88095;-33
2023/08/27 08:34:28;;;;;;;2.75;2.28;;;17.20;99.90;;;;;;5018846;28;88125;-34
2023/08/27 08:36:54;;;;;;;2.25;2.05;;;17.20;99.90;;;;;;5020496;28;88961;-34
2023/08/27 08:39:20;;;;;;;2.35;2.15;;;17.30;99.90;;;;;;5018897;28;90175;-39
2023/08/27 08:42:05;;;;;;;2.60;2.40;;;17.50;99.90;;;;;;5019551;28;90053;-33
2023/08/27 08:45:04;;;;;;;2.75;2.42;;;17.60;99.90;;;;;;5020395;27;88966;-33
2023/08/27 08:47:30;;;;;;;3.08;2.50;;;17.80;99.90;;;;;;5005672;28;87692;-35
2023/08/27 08:50:00;;;;;;;2.83;2.17;;;17.90;99.90;;;;;;5018471;28;88800;-34
2023/08/27 08:52:27;;;;;;;3.10;2.38;;;18.10;99.90;;;;;;5005461;28;90192;-35
2023/08/27 08:54:55;;;;;;;3.33;3.07;;;18.20;99.90;;;;;;5017854;28;87565;-35
2023/08/27 08:57:23;;;;;;;3.40;2.47;;;18.00;99.90;;;;;;5019465;27;89443;-38
2023/08/27 08:59:49;;;;;;;3.30;2.83;;;18.00;99.90;;;;;;5019280;28;90347;-33
2023/08/27 09:02:18;;;;;;;3.15;2.28;;;17.80;99.90;;;;;;5018208;27;89398;-34
2023/08/27 09:04:43;;;;;;;;;;;17.90;99.90;;;;;;5020239;27;89850;-35
2023/08/27 09:07:09;;;;;;;3.78;3.05;;;18.10;99.90;;;;;;5020055;27;90251;-32
2023/08/27 09:09:38;;;;;;;5.13;2.67;;;18.20;99.90;;;;;;5018531;28;90319;-35
2023/08/27 09:12:04;;;;;;;;;;;18.00;99.90;;;;;;5019384;28;89739;-35
2023/08/27 09:14:31;;;;;;;3.97;3.03;;;18.40;99.90;;;;;;5020235;27;87913;-38
2023/08/27 09:16:57;;;;;;;4.20;2.90;;;18.40;99.90;;;;;;5018112;28;89757;-35
2023/08/27 09:19:23;;;;;;;6.88;4.00;;;18.50;99.90;;;;;;5018563;28;91418;-35
2023/08/27 09:21:49;;;;;;;4.28;3.88;;;18.40;99.90;;;;;;5017755;28;89661;-36
2023/08/27 09:24:15;;;;;;;5.22;3.72;;;18.40;99.90;;;;;;5018845;28;87855;-35
2023/08/27 09:26:41;;;;;;;4.05;3.63;;;18.60;99.90;;;;;;5018091;27;90352;-34
2023/08/27 09:29:08;;;;;;;4.97;3.33;;;18.70;99.90;;;;;;5018911;27;91013;-32
2023/08/27 09:31:42;;;;;;;10.35;3.45;;;18.70;99.90;;;;;;5018015;28;89712;-33
2023/08/27 09:34:09;;;;;;;6.78;3.42;;;18.70;99.90;;;;;;5018450;28;88976;-34
2023/08/27 09:36:37;;;;;;;4.95;3.90;;;18.70;99.90;;;;;;5018702;28;88538;-37
2023/08/27 09:39:10;;;;;;;4.45;3.15;;;18.80;99.90;;;;;;5018726;27;90098;-33
2023/08/27 09:41:38;;;;;;;5.25;3.28;;;18.90;99.90;;;;;;5018725;27;89218;-37
2023/08/27 09:44:05;;;;;;;5.47;3.50;;;19.20;99.90;;;;;;5018736;28;88558;-34
2023/08/27 09:46:31;;;;;;;3.33;2.58;;;19.30;99.90;;;;;;5017627;27;88659;-34
2023/08/27 09:49:14;;;;;;;4.88;4.38;;;19.30;99.90;;;;;;5018214;28;89143;-37
2023/08/27 09:51:40;;;;;;;6.15;4.88;;;19.30;99.90;;;;;;5018243;28;91341;-33
2023/08/27 09:54:15;;;;;;;5.60;4.63;;;18.80;99.90;;;;;;5018335;28;89771;-35
2023/08/27 09:56:47;;;;;;;3.92;3.58;;;19.20;99.90;;;;;;5017241;28;88394;-34
2023/08/27 09:59:18;;;;;;;4.32;3.92;;;19.30;99.90;;;;;;5014563;28;90246;-34
2023/08/27 10:01:49;;;;;;;3.60;3.28;;;19.00;99.90;;;;;;5006804;28;89942;-34
2023/08/27 10:04:17;;;;;;;5.45;3.83;;;19.30;99.90;;;;;;5014575;28;88129;-36
2023/08/27 10:06:43;;;;;;;4.07;3.77;;;19.40;99.90;;;;;;5017761;28;90563;-39
2023/08/27 10:09:09;;;;;;;7.00;4.03;;;19.50;99.90;;;;;;5017776;28;90379;-35
2023/08/27 10:11:36;;;;;;;7.65;4.10;;;19.60;99.90;;;;;;5015660;28;89748;-36
2023/08/27 10:14:03;;;;;;;3.35;2.83;;;19.70;99.90;;;;;;5018061;27;88527;-34
2023/08/27 10:16:34;;;;;;;4.22;3.83;;;19.50;99.90;;;;;;5016873;28;89718;-34
2023/08/27 10:19:01;;;;;;;3.00;2.80;;;19.20;99.90;;;;;;5015990;28;90458;-37
2023/08/27 10:21:27;;;;;;;3.97;2.90;;;19.10;99.90;;;;;;5012585;27;89238;-32
2023/08/27 10:23:53;;;;;;;2.90;2.70;;;19.00;99.90;;;;;;5009853;28;88657;-35
2023/08/27 10:26:21;;;;;;;6.68;3.40;;;18.90;99.90;;;;;;5017425;27;89306;-34
2023/08/27 10:28:48;;;;;;;4.93;2.30;;;19.00;99.90;;;;;;5018250;28;90910;-35
2023/08/27 10:31:14;;;;;;;6.75;2.88;;;19.00;99.90;;;;;;5012268;28;92463;-33
2023/08/27 10:33:39;;;;;;;4.18;3.20;;;19.00;99.90;;;;;;5017831;28;87627;-33
2023/08/27 10:36:12;;;;;;;5.97;3.00;;;19.00;99.90;;;;;;5017385;28;88756;-32
2023/08/27 10:38:40;;;;;;;5.30;3.13;;;19.00;99.90;;;;;;5016390;27;89795;-37
2023/08/27 10:41:06;;;;;;;4.20;3.20;;;19.00;99.90;;;;;;5017594;28;90072;-37
2023/08/27 10:43:33;;;;;;;9.23;4.35;;;18.90;99.90;;;;;;5015847;28;88218;-35
2023/08/27 10:46:17;;;;;;;5.07;3.25;;;19.00;99.90;;;;;;5014687;27;88314;-35
2023/08/27 10:48:54;;;;;;;5.65;3.83;;;19.00;99.90;;;;;;5017645;27;91002;-33
2023/08/27 10:51:23;;;;;;;3.55;3.20;;;19.00;99.90;;;;;;5010010;28;89331;-33
2023/08/27 10:53:49;;;;;;;3.95;3.22;;;19.30;99.90;;;;;;5016690;28;88022;-34
2023/08/27 10:56:32;;;;;;;4.40;3.42;;;19.50;99.90;;;;;;5017511;28;89737;-34
2023/08/27 10:59:03;;;;;;;3.55;3.22;;;19.70;99.90;;;;;;5011880;28;90541;-33
2023/08/27 11:01:34;;;;;;;3.95;2.67;;;19.60;99.90;;;;;;5016088;28;90155;-32
2023/08/27 11:04:01;;;;;;;3.30;2.83;;;19.50;99.90;;;;;;5017476;28;89040;-37
2023/08/27 11:06:37;;;;;;;3.95;3.55;;;19.40;99.90;;;;;;5017195;27;88981;-37
2023/08/27 11:09:27;;;;;;;3.83;3.35;;;19.30;99.90;;;;;;5016532;27;89662;-37
2023/08/27 11:12:01;;;;;;;2.97;2.78;;;19.60;99.90;;;;;;5017151;27;89795;-35
2023/08/27 11:14:26;;;;;;;3.47;2.92;;;19.70;99.90;;;;;;5016606;27;89469;-37
2023/08/27 11:17:00;;;;;;;3.58;2.83;;;19.90;99.90;;;;;;5016782;28;87835;-37
2023/08/27 11:19:35;;;;;;;2.78;2.53;;;19.90;99.90;;;;;;5017511;27;90210;-36
2023/08/27 11:22:14;;;;;;;8.07;2.85;;;19.70;99.90;;;;;;5016021;27;87941;-34
2023/08/27 11:24:44;;;;;;;3.95;2.95;;;19.90;99.90;;;;;;5017074;27;89513;-33
2023/08/27 11:27:11;;;;;;;3.53;3.22;;;19.60;99.90;;;;;;5015929;28;89615;-36
2023/08/27 11:29:43;;;;;;;3.53;3.10;;;19.50;99.90;;;;;;5014957;28;89793;-37
2023/08/27 11:32:09;;;;;;;5.10;3.03;;;19.60;99.90;;;;;;5016473;27;88835;-34
2023/08/27 11:34:44;;;;;;;3.95;3.20;;;19.60;99.90;;;;;;5017238;27;88899;-36
2023/08/27 11:37:10;;;;;;;7.18;3.20;;;19.50;99.90;;;;;;5015999;27;88057;-33
2023/08/27 11:39:37;;;;;;;6.22;3.05;;;19.70;99.90;;;;;;5016854;27;90018;-37
2023/08/27 11:42:12;;;;;;;5.13;3.37;;;19.80;99.90;;;;;;5017376;28;88440;-36
2023/08/27 11:44:54;;;;;;;6.68;3.35;;;19.90;99.90;;;;;;5016209;27;88656;-37
2023/08/27 11:47:21;;;;;;;3.28;2.60;;;20.00;99.90;;;;;;5019945;27;89800;-36
2023/08/27 11:49:48;;;;;;;4.53;3.70;;;19.80;99.90;;;;;;5008039;28;89289;-36
2023/08/27 11:52:14;;;;;;;4.13;3.30;;;19.70;99.90;;;;;;5005770;28;90116;-34
2023/08/27 11:54:42;;;;;;;6.85;3.50;;;19.70;99.90;;;;;;5020784;27;89419;-37
2023/08/27 11:57:08;;;;;;;6.00;3.43;;;19.80;99.90;;;;;;5002534;28;88057;-33
2023/08/27 11:59:33;;;;;;;2.92;2.65;;;20.00;99.90;;;;;;5012597;28;90552;-37
2023/08/27 12:02:02;;;;;;;4.57;3.45;;;20.00;99.90;;;;;;5011242;28;90617;-32
2023/08/27 12:04:28;;;;;;;4.45;3.25;;;20.10;99.90;;;;;;5018476;28;89943;-32
2023/08/27 12:07:00;;;;;;;3.88;3.47;;;20.10;99.90;;;;;;5017736;28;88229;-34
2023/08/27 12:09:30;;;;;;;4.50;3.08;;;20.00;99.90;;;;;;5006118;28;89952;-34
2023/08/27 12:12:07;;;;;;;4.47;2.53;;;20.00;99.90;;;;;;5019013;28;90816;-34
2023/08/27 12:14:34;;;;;;;4.40;3.53;;;20.00;99.90;;;;;;5017854;28;90518;-36
2023/08/27 12:17:07;;;;;;;3.65;2.80;;;19.60;99.90;;;;;;5018280;28;90375;-37
2023/08/27 12:19:34;;;;;;;3.00;2.80;;;19.50;99.90;;;;;;5018732;28;90783;-35
2023/08/27 12:21:59;;;;;;;6.05;2.80;;;19.20;99.90;;;;;;5017394;28;89296;-34
2023/08/27 12:24:39;;;;;;;3.22;3.00;;;19.10;99.90;;;;;;5018688;28;89399;-36
2023/08/27 12:27:07;;;;;;;20.70;6.13;;;18.90;99.90;;;;;;5018515;28;89280;-37
2023/08/27 12:29:36;;;;;;;4.45;3.88;;;18.50;99.90;;;;;;5018182;28;89905;-35
2023/08/27 12:32:16;;;;;;;3.55;3.25;;;18.00;99.90;;;;;;5018729;28;91439;-32
2023/08/27 12:34:46;;;;;;;5.43;3.78;;;17.80;99.90;;;;;;5017356;27;88656;-33
2023/08/27 12:37:12;;;;;;;4.55;3.63;;;17.60;99.90;;;;;;5017997;28;90542;-31
2023/08/27 12:39:39;;;;;;;4.18;3.33;;;17.40;99.90;;;;;;5017803;28;89269;-34
2023/08/27 12:42:06;;;;;;;3.63;3.13;;;17.20;99.90;;;;;;5015488;28;89596;-37